createdAt,value
2023-01-07T00:01:01.807Z,3.400000095
2023-01-07T00:02:02.591Z,3.299999952
2023-01-07T00:03:03.394Z,3.299999952
2023-01-07T00:04:04.401Z,4.300000191
2023-01-07T00:05:05.950Z,3.799999952
2023-01-07T00:06:06.818Z,4.199999809
2023-01-07T00:07:07.619Z,3.700000048
2023-01-07T00:08:08.399Z,3.700000048
2023-01-07T00:09:09.210Z,3.299999952
2023-01-07T00:10:10.069Z,3.700000048
2023-01-07T00:11:10.884Z,4.199999809
2023-01-07T00:12:11.727Z,3.700000048
2023-01-07T00:13:12.546Z,3.700000048
2023-01-07T00:14:13.939Z,3.599999905
2023-01-07T00:15:14.694Z,4
2023-01-07T00:16:15.818Z,3.799999952
2023-01-07T00:17:16.634Z,3.900000095
2023-01-07T00:18:17.492Z,3.900000095
2023-01-07T00:19:18.275Z,3.599999905
2023-01-07T00:20:19.090Z,3.700000048
2023-01-07T00:21:19.993Z,3.700000048
2023-01-07T00:22:20.892Z,4.099999905
2023-01-07T00:23:21.823Z,4
2023-01-07T00:24:23.461Z,3.700000048
2023-01-07T00:25:24.192Z,4
2023-01-07T00:26:25.115Z,4.300000191
2023-01-07T00:27:26.894Z,3.799999952
2023-01-07T00:28:28.044Z,3.099999905
2023-01-07T00:29:28.894Z,3.799999952
2023-01-07T00:30:29.618Z,3.599999905
2023-01-07T00:31:31.154Z,3.900000095
2023-01-07T00:33:02.853Z,4.099999905
2023-01-07T00:34:03.726Z,3.700000048
2023-01-07T00:35:05.395Z,3.799999952
2023-01-07T00:36:06.489Z,3.900000095
2023-01-07T00:37:07.424Z,3.900000095
2023-01-07T00:38:08.427Z,4
2023-01-07T00:39:09.958Z,3.700000048
2023-01-07T00:40:10.833Z,3.900000095
2023-01-07T00:41:11.646Z,4.099999905
2023-01-07T00:42:12.611Z,3.799999952
2023-01-07T00:43:13.486Z,4.300000191
2023-01-07T00:44:14.365Z,4
2023-01-07T00:45:15.916Z,3.900000095
2023-01-07T00:46:16.734Z,4.400000095
2023-01-07T00:47:17.545Z,4.300000191
2023-01-07T00:48:18.630Z,3.900000095
2023-01-07T00:49:19.603Z,4.300000191
2023-01-07T00:50:20.496Z,4.599999905
2023-01-07T00:51:21.307Z,4.300000191
2023-01-07T00:52:22.447Z,4.900000095
2023-01-07T00:53:23.175Z,5
2023-01-07T00:54:25.352Z,4.5
2023-01-07T00:55:26.226Z,4.599999905
2023-01-07T00:56:28.121Z,5
2023-01-07T00:57:28.879Z,4.699999809
2023-01-07T00:58:29.620Z,4.300000191
2023-01-07T01:00:01.887Z,4.900000095
2023-01-07T01:01:04.880Z,4.699999809
2023-01-07T01:02:04.035Z,4.400000095
2023-01-07T01:03:04.641Z,4.800000191
2023-01-07T01:04:05.722Z,5.199999809
2023-01-07T01:05:07.392Z,4.5
2023-01-07T01:06:08.460Z,5
2023-01-07T01:07:10.461Z,4.599999905
2023-01-07T01:08:11.275Z,4
2023-01-07T01:09:12.116Z,5.300000191
2023-01-07T01:10:13.266Z,4.699999809
2023-01-07T01:11:14.185Z,4.300000191
2023-01-07T01:12:15.024Z,4.300000191
2023-01-07T01:13:18.033Z,5.099999905
2023-01-07T01:14:16.567Z,4.800000191
2023-01-07T01:15:18.505Z,4.800000191
2023-01-07T01:16:19.619Z,4.699999809
2023-01-07T01:17:20.414Z,4.800000191
2023-01-07T01:18:22.010Z,5
2023-01-07T01:19:22.777Z,5
2023-01-07T01:20:23.567Z,5.199999809
2023-01-07T01:21:24.835Z,5.400000095
2023-01-07T01:22:25.834Z,4.199999809
2023-01-07T01:23:26.709Z,4.599999905
2023-01-07T01:24:28.329Z,4.900000095
2023-01-07T01:25:30.443Z,4.900000095
2023-01-07T01:27:02.458Z,5.800000191
2023-01-07T01:28:03.302Z,4.900000095
2023-01-07T01:29:04.191Z,4.599999905
2023-01-07T01:30:04.946Z,5.300000191
2023-01-07T01:31:05.748Z,4.699999809
2023-01-07T01:32:06.476Z,5.199999809
2023-01-07T01:33:07.306Z,4.699999809
2023-01-07T01:34:08.180Z,5
2023-01-07T01:35:09.937Z,5.099999905
2023-01-07T01:36:10.730Z,4.699999809
2023-01-07T01:37:11.496Z,5.599999905
2023-01-07T01:38:12.825Z,4.900000095
2023-01-07T01:39:13.702Z,5.900000095
2023-01-07T01:40:14.873Z,4.400000095
2023-01-07T01:41:15.647Z,5.199999809
2023-01-07T01:42:16.567Z,5
2023-01-07T01:43:17.847Z,5.400000095
2023-01-07T01:44:18.762Z,4.900000095
2023-01-07T01:45:20.389Z,4.900000095
2023-01-07T01:46:21.266Z,5.099999905
2023-01-07T01:47:22.062Z,4.5
2023-01-07T01:48:22.848Z,5.599999905
2023-01-07T01:49:24.197Z,5.400000095
2023-01-07T01:50:25.064Z,4.900000095
2023-01-07T01:51:26.999Z,5
2023-01-07T01:52:28.060Z,4.800000191
2023-01-07T01:53:28.811Z,4.800000191
2023-01-07T01:54:30.091Z,5.099999905
2023-01-07T01:56:02.881Z,5.699999809
2023-01-07T01:57:04.097Z,4.800000191
2023-01-07T01:58:04.930Z,5.400000095
2023-01-07T01:59:05.940Z,5.099999905
2023-01-07T02:00:07.485Z,5.599999905
2023-01-07T02:01:09.156Z,5.099999905
2023-01-07T02:02:09.972Z,5.400000095
2023-01-07T02:03:10.850Z,5.099999905
2023-01-07T02:04:11.631Z,5
2023-01-07T02:05:13.466Z,5.300000191
2023-01-07T02:06:14.306Z,5.099999905
2023-01-07T02:07:15.208Z,5.099999905
2023-01-07T02:08:16.827Z,5.400000095
2023-01-07T02:09:17.621Z,5.300000191
2023-01-07T02:10:18.459Z,5.599999905
2023-01-07T02:11:19.310Z,5
2023-01-07T02:12:20.173Z,5.300000191
2023-01-07T02:13:21.019Z,5.300000191
2023-01-07T02:14:21.701Z,5.199999809
2023-01-07T02:15:23.429Z,5.300000191
2023-01-07T02:16:24.347Z,5.699999809
2023-01-07T02:17:25.147Z,5.599999905
2023-01-07T02:18:26.012Z,4.699999809
2023-01-07T02:19:26.723Z,5.300000191
2023-01-07T02:20:27.679Z,5.5
2023-01-07T02:21:28.480Z,5.199999809
2023-01-07T02:22:29.828Z,5.199999809
2023-01-07T02:24:01.188Z,5.400000095
2023-01-07T02:25:02.958Z,5
2023-01-07T02:26:03.661Z,5.400000095
2023-01-07T02:27:04.455Z,5.699999809
2023-01-07T02:28:05.305Z,4.800000191
2023-01-07T02:29:06.225Z,5
2023-01-07T02:30:07.096Z,4.599999905
2023-01-07T02:31:07.837Z,4.699999809
2023-01-07T02:32:08.616Z,5.099999905
2023-01-07T02:33:10.503Z,4.900000095
2023-01-07T02:34:11.350Z,5.099999905
2023-01-07T02:35:12.978Z,4.800000191
2023-01-07T02:36:13.768Z,5.5
2023-01-07T02:37:15.289Z,4.800000191
2023-01-07T02:38:16.125Z,5
2023-01-07T02:39:16.971Z,4.699999809
2023-01-07T02:40:17.807Z,5.199999809
2023-01-07T02:41:18.660Z,4.699999809
2023-01-07T02:42:19.389Z,5
2023-01-07T02:43:20.111Z,5.099999905
2023-01-07T02:44:21.079Z,4.800000191
2023-01-07T02:45:22.469Z,5.099999905
2023-01-07T02:46:23.361Z,5.199999809
2023-01-07T02:47:24.120Z,4.800000191
2023-01-07T02:48:24.807Z,4.800000191
2023-01-07T02:49:25.678Z,5.099999905
2023-01-07T02:50:26.473Z,4.800000191
2023-01-07T02:51:27.937Z,4.599999905
2023-01-07T02:52:28.788Z,5
2023-01-07T02:54:00.136Z,5.599999905
2023-01-07T02:55:00.931Z,5
2023-01-07T02:56:02.386Z,5.300000191
2023-01-07T02:57:03.202Z,5.400000095
2023-01-07T02:58:04.838Z,5.900000095
2023-01-07T02:59:05.618Z,5.400000095
2023-01-07T03:00:06.425Z,5.400000095
2023-01-07T03:01:07.339Z,4.900000095
2023-01-07T03:02:07.922Z,5.099999905
2023-01-07T03:03:08.678Z,5.099999905
2023-01-07T03:04:09.503Z,4.800000191
2023-01-07T03:05:10.167Z,5.199999809
2023-01-07T03:06:11.856Z,5.099999905
2023-01-07T03:07:13.395Z,5.5
2023-01-07T03:08:14.217Z,5.099999905
2023-01-07T03:09:15.084Z,5.300000191
2023-01-07T03:10:15.827Z,5.300000191
2023-01-07T03:11:16.598Z,5.099999905
2023-01-07T03:12:17.390Z,5.599999905
2023-01-07T03:13:18.146Z,5.300000191
2023-01-07T03:14:18.888Z,4.800000191
2023-01-07T03:15:20.445Z,5.400000095
2023-01-07T03:16:22.035Z,5.099999905
2023-01-07T03:17:22.649Z,5.400000095
2023-01-07T03:18:23.450Z,5.300000191
2023-01-07T03:19:24.236Z,5.099999905
2023-01-07T03:20:24.998Z,5
2023-01-07T03:21:26.434Z,5.099999905
2023-01-07T03:22:27.146Z,5.199999809
2023-01-07T03:23:59.681Z,4.900000095
2023-01-07T03:25:00.431Z,5.699999809
2023-01-07T03:26:01.817Z,5.300000191
2023-01-07T03:27:02.648Z,5
2023-01-07T03:28:03.374Z,5
2023-01-07T03:29:04.154Z,5.5
2023-01-07T03:30:04.986Z,5.099999905
2023-01-07T03:31:05.775Z,5.099999905
2023-01-07T03:32:06.579Z,4.599999905
2023-01-07T03:33:07.273Z,4.800000191
2023-01-07T03:34:08.033Z,4.800000191
2023-01-07T03:35:08.862Z,5.400000095
2023-01-07T03:36:10.356Z,5.400000095
2023-01-07T03:37:11.119Z,4.599999905
2023-01-07T03:38:11.947Z,4.699999809
2023-01-07T03:39:12.744Z,4.800000191
2023-01-07T03:40:13.527Z,5
2023-01-07T03:41:14.331Z,5
2023-01-07T03:42:15.113Z,4.599999905
2023-01-07T03:43:15.888Z,4.699999809
2023-01-07T03:44:16.619Z,5.199999809
2023-01-07T03:45:17.423Z,5.199999809
2023-01-07T03:46:18.878Z,5
2023-01-07T03:47:19.675Z,5.300000191
2023-01-07T03:48:20.442Z,4.900000095
2023-01-07T03:49:21.247Z,4.699999809
2023-01-07T03:50:22.033Z,4.699999809
2023-01-07T03:51:22.780Z,4.699999809
2023-01-07T03:52:23.542Z,5
2023-01-07T03:53:24.333Z,4.699999809
2023-01-07T03:54:25.040Z,5
2023-01-07T03:55:25.863Z,4.800000191
2023-01-07T03:56:27.338Z,4.800000191
2023-01-07T03:57:28.871Z,5.199999809
2023-01-07T03:59:00.108Z,4.599999905
2023-01-07T04:00:01.214Z,5
2023-01-07T04:01:02.129Z,4.800000191
2023-01-07T04:02:03.329Z,5.5
2023-01-07T04:03:03.980Z,4.800000191
2023-01-07T04:04:04.803Z,4.699999809
2023-01-07T04:05:05.511Z,5.599999905
2023-01-07T04:06:06.954Z,5.300000191
2023-01-07T04:07:07.712Z,4.199999809
2023-01-07T04:08:08.467Z,4.699999809
2023-01-07T04:09:09.290Z,4.5
2023-01-07T04:10:10.134Z,4.300000191
2023-01-07T04:11:10.936Z,5.099999905
2023-01-07T04:12:11.690Z,5.199999809
2023-01-07T04:13:13.364Z,4.900000095
2023-01-07T04:14:14.155Z,4.900000095
2023-01-07T04:15:14.967Z,4.900000095
2023-01-07T04:16:16.555Z,5
2023-01-07T04:17:17.342Z,5
2023-01-07T04:18:18.144Z,4.699999809
2023-01-07T04:19:18.977Z,5.400000095
2023-01-07T04:20:19.779Z,4.900000095
2023-01-07T04:21:20.556Z,5.199999809
2023-01-07T04:22:21.395Z,4.900000095
2023-01-07T04:23:22.221Z,5.300000191
2023-01-07T04:24:23.090Z,5
2023-01-07T04:25:23.881Z,4.400000095
2023-01-07T04:26:25.289Z,5.300000191
2023-01-07T04:27:26.102Z,4.900000095
2023-01-07T04:28:26.810Z,5.099999905
2023-01-07T04:29:27.783Z,4.599999905
2023-01-07T04:30:59.240Z,5
2023-01-07T04:32:00.776Z,4.900000095
2023-01-07T04:33:01.590Z,5.099999905
2023-01-07T04:34:02.434Z,4.800000191
2023-01-07T04:35:03.135Z,5
2023-01-07T04:36:04.443Z,5.099999905
2023-01-07T04:37:05.181Z,5.099999905
2023-01-07T04:38:06.819Z,4.699999809
2023-01-07T04:39:07.600Z,5.300000191
2023-01-07T04:40:08.360Z,5.199999809
2023-01-07T04:41:09.110Z,5.199999809
2023-01-07T04:42:09.930Z,5.300000191
2023-01-07T04:43:10.730Z,5.199999809
2023-01-07T04:44:11.486Z,5.699999809
2023-01-07T04:45:12.325Z,4.800000191
2023-01-07T04:46:13.954Z,4.900000095
2023-01-07T04:47:14.673Z,4.900000095
2023-01-07T04:48:15.464Z,5
2023-01-07T04:49:16.190Z,5.400000095
2023-01-07T04:50:16.972Z,4.900000095
2023-01-07T04:51:17.771Z,5.199999809
2023-01-07T04:52:18.625Z,4.5
2023-01-07T04:53:19.457Z,4.900000095
2023-01-07T04:54:20.128Z,4.800000191
2023-01-07T04:55:20.845Z,4.900000095
2023-01-07T04:56:22.395Z,5.300000191
2023-01-07T04:57:23.165Z,4.900000095
2023-01-07T04:58:23.971Z,5.300000191
2023-01-07T04:59:24.675Z,5.099999905
2023-01-07T05:00:25.395Z,4.599999905
2023-01-07T05:01:26.244Z,4.900000095
2023-01-07T05:02:26.887Z,5
2023-01-07T05:03:58.729Z,4.699999809
2023-01-07T05:04:59.435Z,5.5
2023-01-07T05:06:00.227Z,4.800000191
2023-01-07T05:07:01.873Z,5.099999905
2023-01-07T05:08:02.627Z,5.800000191
2023-01-07T05:09:03.411Z,5.400000095
2023-01-07T05:10:04.742Z,5.699999809
2023-01-07T05:11:06.119Z,5
2023-01-07T05:12:06.979Z,4.5
2023-01-07T05:13:07.752Z,4.699999809
2023-01-07T05:14:08.606Z,4.400000095
2023-01-07T05:15:09.382Z,4.800000191
2023-01-07T05:16:10.137Z,4.900000095
2023-01-07T05:17:11.909Z,4.900000095
2023-01-07T05:18:13.305Z,4.599999905
2023-01-07T05:19:14.128Z,5.199999809
2023-01-07T05:20:14.855Z,4.800000191
2023-01-07T05:21:15.689Z,5
2023-01-07T05:22:16.424Z,5.099999905
2023-01-07T05:23:17.174Z,5
2023-01-07T05:24:18.021Z,5
2023-01-07T05:25:18.779Z,4.599999905
2023-01-07T05:26:20.507Z,4.699999809
2023-01-07T05:27:21.283Z,5
2023-01-07T05:28:22.920Z,4.699999809
2023-01-07T05:29:23.683Z,4.900000095
2023-01-07T05:30:24.437Z,4.900000095
2023-01-07T05:31:25.182Z,5.300000191
2023-01-07T05:32:25.919Z,5.300000191
2023-01-07T05:33:26.632Z,4.900000095
2023-01-07T05:34:27.982Z,5.5
2023-01-07T05:35:59.156Z,4.900000095
2023-01-07T05:37:00.925Z,4.800000191
2023-01-07T05:38:01.683Z,4.5
2023-01-07T05:39:02.488Z,5.400000095
2023-01-07T05:40:03.319Z,4.699999809
2023-01-07T05:41:04.063Z,4.800000191
2023-01-07T05:42:04.828Z,5
2023-01-07T05:43:05.565Z,4.599999905
2023-01-07T05:44:06.315Z,5
2023-01-07T05:45:07.110Z,4.699999809
2023-01-07T05:46:07.904Z,5.400000095
2023-01-07T05:47:09.296Z,5.300000191
2023-01-07T05:48:10.052Z,4.599999905
2023-01-07T05:49:10.878Z,4.699999809
2023-01-07T05:50:11.619Z,5.400000095
2023-01-07T05:51:12.383Z,4.800000191
2023-01-07T05:52:13.884Z,5.400000095
2023-01-07T05:53:14.724Z,4.5
2023-01-07T05:54:15.561Z,4.800000191
2023-01-07T05:55:16.357Z,4.800000191
2023-01-07T05:56:17.285Z,4.599999905
2023-01-07T05:57:18.890Z,5.199999809
2023-01-07T05:58:19.703Z,5.300000191
2023-01-07T05:59:20.489Z,4.699999809
2023-01-07T06:00:21.371Z,5.099999905
2023-01-07T06:01:22.382Z,4.599999905
2023-01-07T06:02:23.112Z,5.099999905
2023-01-07T06:03:24.023Z,4.699999809
2023-01-07T06:04:24.833Z,4.300000191
2023-01-07T06:05:25.664Z,4.5
2023-01-07T06:06:27.469Z,4.199999809
2023-01-07T06:07:59.433Z,4.300000191
2023-01-07T06:09:00.191Z,4.800000191
2023-01-07T06:10:02.931Z,4.900000095
2023-01-07T06:11:01.884Z,4.800000191
2023-01-07T06:12:02.812Z,5.199999809
2023-01-07T06:13:03.651Z,5.099999905
2023-01-07T06:14:04.516Z,5.099999905
2023-01-07T06:15:05.299Z,5
2023-01-07T06:16:06.174Z,4.5
2023-01-07T06:17:07.943Z,4.599999905
2023-01-07T06:18:08.798Z,5
2023-01-07T06:19:09.637Z,5.199999809
2023-01-07T06:20:10.382Z,5
2023-01-07T06:21:11.197Z,4.900000095
2023-01-07T06:22:12.095Z,4.800000191
2023-01-07T06:23:12.944Z,4.800000191
2023-01-07T06:24:13.838Z,4.5
2023-01-07T06:25:14.616Z,4.699999809
2023-01-07T06:26:15.406Z,4.699999809
2023-01-07T06:27:16.832Z,4.099999905
2023-01-07T06:28:17.696Z,5.099999905
2023-01-07T06:29:18.681Z,4.599999905
2023-01-07T06:30:19.595Z,5.300000191
2023-01-07T06:31:20.392Z,5.099999905
2023-01-07T06:32:21.208Z,5.300000191
2023-01-07T06:33:22.109Z,4.300000191
2023-01-07T06:34:22.996Z,5.199999809
2023-01-07T06:35:23.882Z,5.099999905
2023-01-07T06:36:24.715Z,4.599999905
2023-01-07T06:37:26.348Z,5.5
2023-01-07T06:38:57.772Z,5
2023-01-07T06:39:58.613Z,5.199999809
2023-01-07T06:40:59.526Z,4.5
2023-01-07T06:42:00.335Z,5
2023-01-07T06:43:01.261Z,5.699999809
2023-01-07T06:44:02.005Z,5
2023-01-07T06:45:02.885Z,5
2023-01-07T06:46:03.911Z,5.099999905
2023-01-07T06:47:05.413Z,5.5
2023-01-07T06:48:06.213Z,4.699999809
2023-01-07T06:49:06.976Z,4.699999809
2023-01-07T06:50:07.846Z,4.599999905
2023-01-07T06:51:08.756Z,4.5
2023-01-07T06:52:09.648Z,5.099999905
2023-01-07T06:53:10.461Z,4.400000095
2023-01-07T06:54:11.151Z,5
2023-01-07T06:55:12.026Z,5.199999809
2023-01-07T06:56:12.894Z,4.599999905
2023-01-07T06:57:14.496Z,5.199999809
2023-01-07T06:58:15.326Z,5.199999809
2023-01-07T06:59:16.068Z,5
2023-01-07T07:00:16.898Z,5.099999905
2023-01-07T07:01:17.959Z,4.900000095
2023-01-07T07:02:18.893Z,4.900000095
2023-01-07T07:03:19.721Z,4.900000095
2023-01-07T07:04:20.428Z,5.5
2023-01-07T07:05:21.262Z,5
2023-01-07T07:06:22.130Z,4.699999809
2023-01-07T07:07:23.933Z,5.199999809
2023-01-07T07:08:25.433Z,5.199999809
2023-01-07T07:09:26.616Z,4.699999809
2023-01-07T07:10:57.900Z,5.5
2023-01-07T07:11:58.811Z,5.5
2023-01-07T07:12:59.707Z,5.300000191
2023-01-07T07:14:00.656Z,5.400000095
2023-01-07T07:15:01.467Z,5.300000191
2023-01-07T07:16:02.294Z,5
2023-01-07T07:17:04.000Z,5.400000095
2023-01-07T07:18:04.898Z,5.699999809
2023-01-07T07:19:05.900Z,5.400000095
2023-01-07T07:20:06.669Z,5.599999905
2023-01-07T07:21:07.495Z,5.5
2023-01-07T07:22:08.942Z,6.199999809
2023-01-07T07:23:09.787Z,5.5
2023-01-07T07:24:10.849Z,6
2023-01-07T07:25:11.581Z,6
2023-01-07T07:26:12.412Z,6.300000191
2023-01-07T07:27:14.028Z,6.199999809
2023-01-07T07:28:14.900Z,5.699999809
2023-01-07T07:29:16.001Z,6
2023-01-07T07:30:16.892Z,5.900000095
2023-01-07T07:31:17.932Z,5.800000191
2023-01-07T07:32:19.434Z,6.099999905
2023-01-07T07:33:20.278Z,5.699999809
2023-01-07T07:34:21.228Z,6.5
2023-01-07T07:35:22.101Z,5.900000095
2023-01-07T07:36:22.878Z,6
2023-01-07T07:37:24.434Z,7.300000191
2023-01-07T07:38:25.251Z,5.599999905
2023-01-07T07:39:26.589Z,6.300000191
2023-01-07T07:40:58.143Z,6.300000191
2023-01-07T07:41:58.964Z,5.900000095
2023-01-07T07:43:10.577Z,6.300000191
2023-01-07T07:44:01.196Z,6.400000095
2023-01-07T07:45:02.152Z,6
2023-01-07T07:46:03.193Z,6.099999905
2023-01-07T07:47:04.009Z,4.699999809
2023-01-07T07:48:05.336Z,5.300000191
2023-01-07T07:49:06.323Z,4.800000191
2023-01-07T07:50:07.221Z,4.5
2023-01-07T07:51:08.073Z,4.699999809
2023-01-07T07:52:08.964Z,5.199999809
2023-01-07T07:53:09.794Z,5.300000191
2023-01-07T07:54:11.044Z,5.400000095
2023-01-07T07:55:20.612Z,4.5
2023-01-07T07:56:12.859Z,5.300000191
2023-01-07T07:57:14.494Z,4.699999809
2023-01-07T07:58:15.247Z,4.900000095
2023-01-07T07:59:16.043Z,4.800000191
2023-01-07T08:00:16.970Z,5
2023-01-07T08:01:17.838Z,4.699999809
2023-01-07T08:02:19.520Z,5.099999905
2023-01-07T08:03:20.376Z,4.400000095
2023-01-07T08:04:21.090Z,4.800000191
2023-01-07T08:05:21.894Z,4.5
2023-01-07T08:06:22.749Z,4.900000095
2023-01-07T08:07:33.946Z,4.5
2023-01-07T08:08:25.329Z,4.900000095
2023-01-07T08:09:56.781Z,4.900000095
2023-01-07T08:10:57.739Z,5.199999809
2023-01-07T08:11:58.588Z,4.800000191
2023-01-07T08:12:59.565Z,4.5
2023-01-07T08:14:00.948Z,4.300000191
2023-01-07T08:15:01.746Z,5
2023-01-07T08:16:02.612Z,4.599999905
2023-01-07T08:17:03.681Z,4.800000191
2023-01-07T08:18:05.640Z,4.900000095
2023-01-07T08:19:06.591Z,5.099999905
2023-01-07T08:20:07.542Z,4.800000191
2023-01-07T08:21:08.304Z,5.300000191
2023-01-07T08:22:09.104Z,4.900000095
2023-01-07T08:23:10.532Z,4.800000191
2023-01-07T08:24:11.448Z,5.099999905
2023-01-07T08:25:12.259Z,5
2023-01-07T08:26:13.820Z,5.300000191
2023-01-07T08:27:14.654Z,4.199999809
2023-01-07T08:28:16.406Z,5.199999809
2023-01-07T08:29:17.328Z,4.599999905
2023-01-07T08:30:18.177Z,4.699999809
2023-01-07T08:31:19.101Z,4.5
2023-01-07T08:32:19.799Z,5
2023-01-07T08:33:20.655Z,5.199999809
2023-01-07T08:34:22.591Z,5.300000191
2023-01-07T08:35:22.498Z,4.800000191
2023-01-07T08:36:23.769Z,4.300000191
2023-01-07T08:37:24.950Z,4.699999809
2023-01-07T08:38:57.745Z,4.400000095
2023-01-07T08:39:58.720Z,4.800000191
2023-01-07T08:40:59.798Z,4.300000191
2023-01-07T08:42:00.717Z,4.400000095
2023-01-07T08:43:01.504Z,4.400000095
2023-01-07T08:44:02.299Z,4.300000191
2023-01-07T08:45:03.178Z,4.099999905
2023-01-07T08:46:04.071Z,5.099999905
2023-01-07T08:47:04.960Z,4.400000095
2023-01-07T08:48:06.287Z,4.5
2023-01-07T08:49:07.069Z,4.900000095
2023-01-07T08:50:07.984Z,4.400000095
2023-01-07T08:51:08.874Z,4.800000191
2023-01-07T08:52:09.776Z,4.400000095
2023-01-07T08:53:10.575Z,4.800000191
2023-01-07T08:54:11.407Z,4.900000095
2023-01-07T08:55:13.004Z,4.800000191
2023-01-07T08:56:13.975Z,4.5
2023-01-07T08:57:14.862Z,4.599999905
2023-01-07T08:58:16.365Z,4.199999809
2023-01-07T08:59:17.134Z,4.300000191
2023-01-07T09:00:17.850Z,4.900000095
2023-01-07T09:01:18.998Z,4.699999809
2023-01-07T09:02:19.966Z,4.900000095
2023-01-07T09:03:20.683Z,5.199999809
2023-01-07T09:04:21.540Z,4.699999809
2023-01-07T09:05:22.338Z,4.699999809
2023-01-07T09:06:23.211Z,4.900000095
2023-01-07T09:07:24.025Z,4.400000095
2023-01-07T09:08:56.185Z,5.199999809
2023-01-07T09:09:57.021Z,4.400000095
2023-01-07T09:10:57.745Z,5.300000191
2023-01-07T09:11:58.602Z,5.199999809
2023-01-07T09:12:59.509Z,5
2023-01-07T09:14:01.024Z,5.199999809
2023-01-07T09:15:01.863Z,5.199999809
2023-01-07T09:16:02.710Z,5.199999809
2023-01-07T09:17:03.424Z,5.699999809
2023-01-07T09:18:04.980Z,4.5
2023-01-07T09:19:05.836Z,5.099999905
2023-01-07T09:20:06.750Z,5.199999809
2023-01-07T09:21:07.531Z,4.699999809
2023-01-07T09:22:08.923Z,5.099999905
2023-01-07T09:23:09.764Z,4.699999809
2023-01-07T09:24:10.732Z,5
2023-01-07T09:25:11.620Z,5.400000095
2023-01-07T09:26:12.417Z,5.400000095
2023-01-07T09:27:13.157Z,5.199999809
2023-01-07T09:28:14.963Z,4.400000095
2023-01-07T09:29:15.996Z,4.900000095
2023-01-07T09:30:16.731Z,4.400000095
2023-01-07T09:31:17.706Z,5.099999905
2023-01-07T09:32:19.415Z,5.300000191
2023-01-07T09:33:20.304Z,4.900000095
2023-01-07T09:34:21.056Z,4.900000095
2023-01-07T09:35:21.917Z,5
2023-01-07T09:36:22.802Z,4.900000095
2023-01-07T09:37:23.618Z,4.400000095
2023-01-07T09:38:55.701Z,4.599999905
2023-01-07T09:39:56.637Z,5
2023-01-07T09:40:57.701Z,5.199999809
2023-01-07T09:41:58.570Z,4.800000191
2023-01-07T09:42:59.437Z,4.599999905
2023-01-07T09:44:01.837Z,4.199999809
2023-01-07T09:45:00.912Z,5
2023-01-07T09:46:01.880Z,4.800000191
2023-01-07T09:47:02.711Z,4.5
2023-01-07T09:48:04.447Z,4.699999809
2023-01-07T09:49:05.281Z,4.599999905
2023-01-07T09:50:06.026Z,4.900000095
2023-01-07T09:51:06.877Z,4
2023-01-07T09:52:07.731Z,4.5
2023-01-07T09:53:08.621Z,5.099999905
2023-01-07T09:54:09.385Z,4.199999809
2023-01-07T09:55:10.171Z,4.199999809
2023-01-07T09:56:12.837Z,4.5
2023-01-07T09:57:11.935Z,3.900000095
2023-01-07T09:58:13.542Z,4.699999809
2023-01-07T09:59:14.452Z,4
2023-01-07T10:00:15.945Z,4.099999905
2023-01-07T10:01:16.799Z,4
2023-01-07T10:02:17.662Z,3.799999952
2023-01-07T10:03:19.503Z,4.300000191
2023-01-07T10:04:20.486Z,3.799999952
2023-01-07T10:05:21.129Z,4.099999905
2023-01-07T10:06:35.065Z,4.099999905
2023-01-07T10:07:23.451Z,4.099999905
2023-01-07T10:08:29.268Z,4.800000191
2023-01-07T10:09:56.781Z,3.700000048
2023-01-07T10:10:57.641Z,4.400000095
2023-01-07T10:11:58.450Z,3.900000095
2023-01-07T10:12:59.272Z,5
2023-01-07T10:14:00.259Z,3.799999952
2023-01-07T10:15:01.165Z,3.799999952
2023-01-07T10:16:01.993Z,4.599999905
2023-01-07T10:17:02.707Z,4.300000191
2023-01-07T10:18:04.464Z,5
2023-01-07T10:19:05.886Z,3.900000095
2023-01-07T10:20:07.422Z,4.400000095
2023-01-07T10:21:08.172Z,4
2023-01-07T10:22:08.923Z,3.799999952
2023-01-07T10:23:10.370Z,3.900000095
2023-01-07T10:24:11.203Z,4.300000191
2023-01-07T10:25:12.157Z,3.700000048
2023-01-07T10:26:12.952Z,3.900000095
2023-01-07T10:27:13.774Z,4.099999905
2023-01-07T10:28:15.507Z,3.700000048
2023-01-07T10:29:16.415Z,3.900000095
2023-01-07T10:30:17.308Z,4.199999809
2023-01-07T10:31:18.177Z,4.099999905
2023-01-07T10:32:18.927Z,3.900000095
2023-01-07T10:33:19.707Z,3.200000048
2023-01-07T10:34:20.528Z,3.700000048
2023-01-07T10:35:21.456Z,3.5
2023-01-07T10:36:22.323Z,3.799999952
2023-01-07T10:37:23.834Z,3.200000048
2023-01-07T10:38:55.881Z,3.799999952
2023-01-07T10:39:56.715Z,3.700000048
2023-01-07T10:40:57.730Z,3.5
2023-01-07T10:41:58.536Z,3.599999905
2023-01-07T10:42:59.300Z,4.099999905
2023-01-07T10:44:00.956Z,3.900000095
2023-01-07T10:45:01.701Z,3.700000048
2023-01-07T10:46:02.608Z,3.400000095
2023-01-07T10:47:03.448Z,3.599999905
2023-01-07T10:48:04.332Z,3.599999905
2023-01-07T10:49:05.835Z,3.5
2023-01-07T10:50:06.564Z,4
2023-01-07T10:51:07.496Z,3.099999905
2023-01-07T10:52:08.865Z,3.400000095
2023-01-07T10:53:09.733Z,3.5
2023-01-07T10:54:10.472Z,3.900000095
2023-01-07T10:55:11.210Z,4
2023-01-07T10:56:12.136Z,4
2023-01-07T10:57:13.015Z,3.900000095
2023-01-07T10:58:14.463Z,3.599999905
2023-01-07T10:59:15.504Z,3.700000048
2023-01-07T11:00:16.147Z,3.900000095
2023-01-07T11:01:17.080Z,3.5
2023-01-07T11:02:18.034Z,3.200000048
2023-01-07T11:03:19.430Z,4.099999905
2023-01-07T11:04:20.276Z,3.700000048
2023-01-07T11:05:21.061Z,3.799999952
2023-01-07T11:06:21.775Z,3.599999905
2023-01-07T11:07:22.632Z,3.5
2023-01-07T11:08:24.467Z,3.5
2023-01-07T11:09:55.872Z,3.5
2023-01-07T11:10:58.604Z,3.700000048
2023-01-07T11:11:57.651Z,4
2023-01-07T11:12:58.513Z,3.5
2023-01-07T11:13:59.338Z,3.400000095
2023-01-07T11:15:00.213Z,3.599999905
2023-01-07T11:16:01.031Z,3.5
2023-01-07T11:17:01.873Z,3.900000095
2023-01-07T11:18:02.496Z,3.799999952
2023-01-07T11:19:03.939Z,4.099999905
2023-01-07T11:20:04.789Z,3.599999905
2023-01-07T11:21:05.651Z,3.599999905
2023-01-07T11:22:06.490Z,3.700000048
2023-01-07T11:23:07.242Z,3.700000048
2023-01-07T11:24:08.942Z,3.700000048
2023-01-07T11:25:09.833Z,4.099999905
2023-01-07T11:26:10.724Z,4
2023-01-07T11:27:11.456Z,3.700000048
2023-01-07T11:28:12.161Z,4.5
2023-01-07T11:29:13.874Z,3.099999905
2023-01-07T11:30:14.678Z,4.099999905
2023-01-07T11:31:15.558Z,4.300000191
2023-01-07T11:32:16.407Z,3.900000095
2023-01-07T11:33:17.103Z,4.5
2023-01-07T11:34:17.902Z,4.300000191
2023-01-07T11:35:20.668Z,3.900000095
2023-01-07T11:36:19.752Z,3.5
2023-01-07T11:37:20.592Z,3.799999952
2023-01-07T11:38:21.345Z,4.099999905
2023-01-07T11:39:22.810Z,3.900000095
2023-01-07T11:40:54.425Z,4.099999905
2023-01-07T11:41:55.258Z,4.199999809
2023-01-07T11:42:56.983Z,3.700000048
2023-01-07T11:43:57.680Z,4.099999905